Terminal Aerodrome Forecast
Issued by NWS

Home | Current Version | Previous Version | Text Only | Print | Product List | Glossary Off
Versions: 1 2 3 4 5 6 7 8 9 10 11 12 13 14 15 16 17

000
FTUS43 KMPX 151100
TAFAXN
TAF
KAXN 151139Z 1512/1612 33007KT P6SM OVC060
     FM151500 31010KT P6SM SCT060
     FM160000 24004KT P6SM SKC=

USA.gov is the U.S. government's official web portal to all federal, state and local government web resources and services.